sensor_id;sensor_type;location;lat;lon;timestamp;P1;durP1;ratioP1;P2;durP2;ratioP2
54853;SDS011;40747;49.480;8.658;2024-03-06T00:01:57;1.58;;;1.15;;
54853;SDS011;40747;49.480;8.658;2024-03-06T00:04:22;1.67;;;1.10;;
54853;SDS011;40747;49.480;8.658;2024-03-06T00:06:48;1.00;;;0.90;;
54853;SDS011;40747;49.480;8.658;2024-03-06T00:09:13;1.10;;;1.00;;
54853;SDS011;40747;49.480;8.658;2024-03-06T00:11:38;1.55;;;1.30;;
54853;SDS011;40747;49.480;8.658;2024-03-06T00:14:05;2.47;;;1.25;;
54853;SDS011;40747;49.480;8.658;2024-03-06T00:16:30;1.90;;;0.90;;
54853;SDS011;40747;49.480;8.658;2024-03-06T00:18:59;1.58;;;1.30;;
54853;SDS011;40747;49.480;8.658;2024-03-06T00:21:24;4.28;;;1.10;;
54853;SDS011;40747;49.480;8.658;2024-03-06T00:23:50;1.27;;;1.17;;
54853;SDS011;40747;49.480;8.658;2024-03-06T00:26:16;1.48;;;1.20;;
54853;SDS011;40747;49.480;8.658;2024-03-06T00:28:41;4.18;;;1.55;;
54853;SDS011;40747;49.480;8.658;2024-03-06T00:31:06;2.15;;;1.27;;
54853;SDS011;40747;49.480;8.658;2024-03-06T00:33:32;2.08;;;1.25;;
54853;SDS011;40747;49.480;8.658;2024-03-06T00:35:57;2.63;;;1.40;;
54853;SDS011;40747;49.480;8.658;2024-03-06T00:38:23;2.03;;;1.60;;
54853;SDS011;40747;49.480;8.658;2024-03-06T00:40:48;1.67;;;1.35;;
54853;SDS011;40747;49.480;8.658;2024-03-06T00:43:13;2.05;;;1.50;;
54853;SDS011;40747;49.480;8.658;2024-03-06T00:45:38;2.17;;;1.35;;
54853;SDS011;40747;49.480;8.658;2024-03-06T00:48:04;1.92;;;1.08;;
54853;SDS011;40747;49.480;8.658;2024-03-06T00:50:29;2.45;;;1.50;;
54853;SDS011;40747;49.480;8.658;2024-03-06T00:52:55;1.17;;;1.00;;
54853;SDS011;40747;49.480;8.658;2024-03-06T00:55:20;1.67;;;1.17;;
54853;SDS011;40747;49.480;8.658;2024-03-06T00:57:45;2.00;;;1.30;;
54853;SDS011;40747;49.480;8.658;2024-03-06T01:00:11;1.73;;;1.33;;
54853;SDS011;40747;49.480;8.658;2024-03-06T01:02:37;4.65;;;1.40;;
54853;SDS011;40747;49.480;8.658;2024-03-06T01:05:03;2.03;;;1.13;;
54853;SDS011;40747;49.480;8.658;2024-03-06T01:07:29;2.15;;;1.25;;
54853;SDS011;40747;49.480;8.658;2024-03-06T01:09:55;3.13;;;1.02;;
54853;SDS011;40747;49.480;8.658;2024-03-06T01:12:22;1.52;;;1.00;;
54853;SDS011;40747;49.480;8.658;2024-03-06T01:14:47;1.23;;;1.13;;
54853;SDS011;40747;49.480;8.658;2024-03-06T01:17:13;1.63;;;1.10;;
54853;SDS011;40747;49.480;8.658;2024-03-06T01:19:38;0.77;;;0.77;;
54853;SDS011;40747;49.480;8.658;2024-03-06T01:22:03;1.10;;;0.95;;
54853;SDS011;40747;49.480;8.658;2024-03-06T01:24:28;3.65;;;1.35;;
54853;SDS011;40747;49.480;8.658;2024-03-06T01:26:54;1.98;;;1.42;;
54853;SDS011;40747;49.480;8.658;2024-03-06T01:29:19;1.30;;;1.00;;
54853;SDS011;40747;49.480;8.658;2024-03-06T01:31:45;1.70;;;0.82;;
54853;SDS011;40747;49.480;8.658;2024-03-06T01:34:11;1.45;;;1.35;;
54853;SDS011;40747;49.480;8.658;2024-03-06T01:36:37;1.73;;;1.38;;
54853;SDS011;40747;49.480;8.658;2024-03-06T01:39:02;2.20;;;1.73;;
54853;SDS011;40747;49.480;8.658;2024-03-06T01:41:28;2.63;;;1.63;;
54853;SDS011;40747;49.480;8.658;2024-03-06T01:43:53;4.72;;;1.30;;
54853;SDS011;40747;49.480;8.658;2024-03-06T01:46:18;2.80;;;1.65;;
54853;SDS011;40747;49.480;8.658;2024-03-06T01:48:43;1.00;;;0.90;;
54853;SDS011;40747;49.480;8.658;2024-03-06T01:51:09;1.15;;;0.82;;
54853;SDS011;40747;49.480;8.658;2024-03-06T01:53:35;6.47;;;1.38;;
54853;SDS011;40747;49.480;8.658;2024-03-06T01:56:01;1.05;;;0.95;;
54853;SDS011;40747;49.480;8.658;2024-03-06T01:58:28;3.40;;;1.88;;
54853;SDS011;40747;49.480;8.658;2024-03-06T02:00:55;1.42;;;1.33;;
54853;SDS011;40747;49.480;8.658;2024-03-06T02:03:22;1.15;;;1.02;;
54853;SDS011;40747;49.480;8.658;2024-03-06T02:05:48;3.15;;;1.23;;
54853;SDS011;40747;49.480;8.658;2024-03-06T02:08:13;3.47;;;1.02;;
54853;SDS011;40747;49.480;8.658;2024-03-06T02:10:39;1.85;;;1.27;;
54853;SDS011;40747;49.480;8.658;2024-03-06T02:13:04;1.45;;;1.35;;
54853;SDS011;40747;49.480;8.658;2024-03-06T02:15:29;6.50;;;2.22;;
54853;SDS011;40747;49.480;8.658;2024-03-06T02:17:55;2.40;;;1.13;;
54853;SDS011;40747;49.480;8.658;2024-03-06T02:20:24;1.42;;;1.27;;
54853;SDS011;40747;49.480;8.658;2024-03-06T02:22:50;1.58;;;1.48;;
54853;SDS011;40747;49.480;8.658;2024-03-06T02:25:15;1.95;;;1.52;;
54853;SDS011;40747;49.480;8.658;2024-03-06T02:27:42;2.92;;;1.75;;
54853;SDS011;40747;49.480;8.658;2024-03-06T02:30:08;1.05;;;1.00;;
54853;SDS011;40747;49.480;8.658;2024-03-06T02:32:34;1.83;;;0.90;;
54853;SDS011;40747;49.480;8.658;2024-03-06T02:35:00;5.25;;;2.35;;
54853;SDS011;40747;49.480;8.658;2024-03-06T02:37:27;2.17;;;1.10;;
54853;SDS011;40747;49.480;8.658;2024-03-06T02:39:53;3.42;;;1.70;;
54853;SDS011;40747;49.480;8.658;2024-03-06T02:42:18;3.53;;;2.05;;
54853;SDS011;40747;49.480;8.658;2024-03-06T02:44:43;2.40;;;1.95;;
54853;SDS011;40747;49.480;8.658;2024-03-06T02:47:08;1.25;;;0.98;;
54853;SDS011;40747;49.480;8.658;2024-03-06T02:49:34;2.75;;;1.40;;
54853;SDS011;40747;49.480;8.658;2024-03-06T02:51:59;1.67;;;1.52;;
54853;SDS011;40747;49.480;8.658;2024-03-06T02:54:26;6.18;;;1.33;;
54853;SDS011;40747;49.480;8.658;2024-03-06T02:56:52;3.95;;;1.63;;
54853;SDS011;40747;49.480;8.658;2024-03-06T02:59:17;4.20;;;2.13;;
54853;SDS011;40747;49.480;8.658;2024-03-06T03:01:42;3.65;;;1.33;;
54853;SDS011;40747;49.480;8.658;2024-03-06T03:04:09;2.88;;;1.52;;
54853;SDS011;40747;49.480;8.658;2024-03-06T03:06:35;6.95;;;2.13;;
54853;SDS011;40747;49.480;8.658;2024-03-06T03:09:00;2.85;;;2.10;;
54853;SDS011;40747;49.480;8.658;2024-03-06T03:11:26;4.57;;;2.38;;
54853;SDS011;40747;49.480;8.658;2024-03-06T03:13:52;2.15;;;1.27;;
54853;SDS011;40747;49.480;8.658;2024-03-06T03:16:17;2.70;;;1.70;;
54853;SDS011;40747;49.480;8.658;2024-03-06T03:18:43;2.40;;;1.60;;
54853;SDS011;40747;49.480;8.658;2024-03-06T03:21:09;2.28;;;1.27;;
54853;SDS011;40747;49.480;8.658;2024-03-06T03:23:35;2.17;;;1.55;;
54853;SDS011;40747;49.480;8.658;2024-03-06T03:26:01;3.13;;;1.90;;
54853;SDS011;40747;49.480;8.658;2024-03-06T03:28:28;3.28;;;1.63;;
54853;SDS011;40747;49.480;8.658;2024-03-06T03:30:54;3.17;;;1.52;;
54853;SDS011;40747;49.480;8.658;2024-03-06T03:33:19;3.17;;;1.83;;
54853;SDS011;40747;49.480;8.658;2024-03-06T03:35:44;1.38;;;1.23;;
54853;SDS011;40747;49.480;8.658;2024-03-06T03:38:10;1.92;;;1.60;;
54853;SDS011;40747;49.480;8.658;2024-03-06T03:40:35;8.43;;;2.40;;
54853;SDS011;40747;49.480;8.658;2024-03-06T03:43:00;4.07;;;1.77;;
54853;SDS011;40747;49.480;8.658;2024-03-06T03:45:31;3.22;;;2.35;;
54853;SDS011;40747;49.480;8.658;2024-03-06T03:47:56;3.15;;;2.17;;
54853;SDS011;40747;49.480;8.658;2024-03-06T03:50:21;6.00;;;2.53;;
54853;SDS011;40747;49.480;8.658;2024-03-06T03:52:47;3.08;;;2.33;;
54853;SDS011;40747;49.480;8.658;2024-03-06T03:55:12;3.63;;;2.13;;
54853;SDS011;40747;49.480;8.658;2024-03-06T03:57:37;2.08;;;1.65;;
54853;SDS011;40747;49.480;8.658;2024-03-06T04:00:03;4.65;;;2.25;;
54853;SDS011;40747;49.480;8.658;2024-03-06T04:02:35;4.55;;;2.22;;
54853;SDS011;40747;49.480;8.658;2024-03-06T04:05:01;1.98;;;1.67;;
54853;SDS011;40747;49.480;8.658;2024-03-06T04:07:27;3.80;;;2.38;;
54853;SDS011;40747;49.480;8.658;2024-03-06T04:09:52;7.10;;;2.13;;
54853;SDS011;40747;49.480;8.658;2024-03-06T04:12:18;3.15;;;2.53;;
54853;SDS011;40747;49.480;8.658;2024-03-06T04:14:43;4.03;;;2.67;;
54853;SDS011;40747;49.480;8.658;2024-03-06T04:17:09;2.88;;;2.33;;
54853;SDS011;40747;49.480;8.658;2024-03-06T04:19:34;3.38;;;2.40;;
54853;SDS011;40747;49.480;8.658;2024-03-06T04:21:59;2.00;;;1.52;;
54853;SDS011;40747;49.480;8.658;2024-03-06T04:24:24;5.55;;;2.67;;
54853;SDS011;40747;49.480;8.658;2024-03-06T04:26:50;3.83;;;1.77;;
54853;SDS011;40747;49.480;8.658;2024-03-06T04:29:15;4.40;;;1.83;;
54853;SDS011;40747;49.480;8.658;2024-03-06T04:31:41;2.22;;;1.95;;
54853;SDS011;40747;49.480;8.658;2024-03-06T04:34:06;2.28;;;1.65;;
54853;SDS011;40747;49.480;8.658;2024-03-06T04:36:31;2.00;;;1.45;;
54853;SDS011;40747;49.480;8.658;2024-03-06T04:38:56;6.28;;;2.38;;
54853;SDS011;40747;49.480;8.658;2024-03-06T04:41:22;3.17;;;2.13;;
54853;SDS011;40747;49.480;8.658;2024-03-06T04:43:48;2.30;;;2.10;;
54853;SDS011;40747;49.480;8.658;2024-03-06T04:46:15;6.15;;;3.05;;
54853;SDS011;40747;49.480;8.658;2024-03-06T04:48:40;2.17;;;1.42;;
54853;SDS011;40747;49.480;8.658;2024-03-06T04:51:06;2.30;;;2.05;;
54853;SDS011;40747;49.480;8.658;2024-03-06T04:53:31;13.80;;;2.45;;
54853;SDS011;40747;49.480;8.658;2024-03-06T04:55:56;2.70;;;1.98;;
54853;SDS011;40747;49.480;8.658;2024-03-06T04:58:22;4.75;;;2.45;;
54853;SDS011;40747;49.480;8.658;2024-03-06T05:00:47;10.35;;;1.83;;
54853;SDS011;40747;49.480;8.658;2024-03-06T05:03:12;3.42;;;2.78;;
54853;SDS011;40747;49.480;8.658;2024-03-06T05:05:37;4.70;;;2.75;;
54853;SDS011;40747;49.480;8.658;2024-03-06T05:08:05;3.78;;;2.75;;
54853;SDS011;40747;49.480;8.658;2024-03-06T05:10:31;5.50;;;3.42;;
54853;SDS011;40747;49.480;8.658;2024-03-06T05:12:57;6.20;;;2.63;;
54853;SDS011;40747;49.480;8.658;2024-03-06T05:15:22;3.97;;;2.53;;
54853;SDS011;40747;49.480;8.658;2024-03-06T05:17:47;4.13;;;2.28;;
54853;SDS011;40747;49.480;8.658;2024-03-06T05:20:13;5.95;;;2.80;;
54853;SDS011;40747;49.480;8.658;2024-03-06T05:22:39;2.47;;;2.17;;
54853;SDS011;40747;49.480;8.658;2024-03-06T05:25:04;3.38;;;2.08;;
54853;SDS011;40747;49.480;8.658;2024-03-06T05:27:30;3.30;;;2.33;;
54853;SDS011;40747;49.480;8.658;2024-03-06T05:29:56;4.57;;;2.92;;
54853;SDS011;40747;49.480;8.658;2024-03-06T05:32:21;13.77;;;5.03;;
54853;SDS011;40747;49.480;8.658;2024-03-06T05:34:46;16.13;;;9.27;;
54853;SDS011;40747;49.480;8.658;2024-03-06T05:37:12;23.15;;;13.35;;
54853;SDS011;40747;49.480;8.658;2024-03-06T05:39:37;19.75;;;11.68;;
54853;SDS011;40747;49.480;8.658;2024-03-06T05:42:03;13.50;;;7.07;;
54853;SDS011;40747;49.480;8.658;2024-03-06T05:44:30;16.00;;;8.95;;
54853;SDS011;40747;49.480;8.658;2024-03-06T05:46:58;20.25;;;7.40;;
54853;SDS011;40747;49.480;8.658;2024-03-06T05:49:26;21.95;;;9.38;;
54853;SDS011;40747;49.480;8.658;2024-03-06T05:51:51;15.20;;;7.85;;
54853;SDS011;40747;49.480;8.658;2024-03-06T05:54:18;12.95;;;6.55;;
54853;SDS011;40747;49.480;8.658;2024-03-06T05:56:44;19.38;;;8.80;;
54853;SDS011;40747;49.480;8.658;2024-03-06T05:59:09;13.90;;;6.38;;
54853;SDS011;40747;49.480;8.658;2024-03-06T06:01:35;17.30;;;7.55;;
54853;SDS011;40747;49.480;8.658;2024-03-06T06:04:00;20.38;;;9.10;;
54853;SDS011;40747;49.480;8.658;2024-03-06T06:06:26;5.13;;;3.63;;
54853;SDS011;40747;49.480;8.658;2024-03-06T06:08:51;4.03;;;3.17;;
54853;SDS011;40747;49.480;8.658;2024-03-06T06:11:17;8.00;;;3.00;;
54853;SDS011;40747;49.480;8.658;2024-03-06T06:13:42;9.30;;;3.22;;
54853;SDS011;40747;49.480;8.658;2024-03-06T06:16:07;2.83;;;2.50;;
54853;SDS011;40747;49.480;8.658;2024-03-06T06:18:32;6.95;;;3.72;;
54853;SDS011;40747;49.480;8.658;2024-03-06T06:20:58;4.13;;;2.95;;
54853;SDS011;40747;49.480;8.658;2024-03-06T06:23:24;43.03;;;22.90;;
54853;SDS011;40747;49.480;8.658;2024-03-06T06:25:49;21.10;;;11.00;;
54853;SDS011;40747;49.480;8.658;2024-03-06T06:28:15;5.57;;;4.03;;
54853;SDS011;40747;49.480;8.658;2024-03-06T06:30:40;7.78;;;3.85;;
54853;SDS011;40747;49.480;8.658;2024-03-06T06:33:06;8.05;;;4.00;;
54853;SDS011;40747;49.480;8.658;2024-03-06T06:35:32;5.40;;;2.58;;
54853;SDS011;40747;49.480;8.658;2024-03-06T06:37:58;4.07;;;2.80;;
54853;SDS011;40747;49.480;8.658;2024-03-06T06:40:24;9.45;;;2.67;;
54853;SDS011;40747;49.480;8.658;2024-03-06T06:42:50;5.07;;;3.40;;
54853;SDS011;40747;49.480;8.658;2024-03-06T06:45:16;10.27;;;3.40;;
54853;SDS011;40747;49.480;8.658;2024-03-06T06:47:42;4.88;;;3.28;;
54853;SDS011;40747;49.480;8.658;2024-03-06T06:50:07;7.63;;;4.13;;
54853;SDS011;40747;49.480;8.658;2024-03-06T06:52:34;4.30;;;3.13;;
54853;SDS011;40747;49.480;8.658;2024-03-06T06:54:59;4.57;;;3.45;;
54853;SDS011;40747;49.480;8.658;2024-03-06T06:57:25;6.47;;;3.22;;
54853;SDS011;40747;49.480;8.658;2024-03-06T06:59:51;5.43;;;3.00;;
54853;SDS011;40747;49.480;8.658;2024-03-06T07:02:17;3.67;;;2.47;;
54853;SDS011;40747;49.480;8.658;2024-03-06T07:04:42;4.85;;;3.40;;
54853;SDS011;40747;49.480;8.658;2024-03-06T07:07:08;6.15;;;3.50;;
54853;SDS011;40747;49.480;8.658;2024-03-06T07:09:33;3.20;;;2.70;;
54853;SDS011;40747;49.480;8.658;2024-03-06T07:11:59;4.45;;;3.20;;
54853;SDS011;40747;49.480;8.658;2024-03-06T07:14:24;2.33;;;2.10;;
54853;SDS011;40747;49.480;8.658;2024-03-06T07:16:50;5.00;;;3.00;;
54853;SDS011;40747;49.480;8.658;2024-03-06T07:19:15;4.10;;;3.05;;
54853;SDS011;40747;49.480;8.658;2024-03-06T07:21:41;6.82;;;2.72;;
54853;SDS011;40747;49.480;8.658;2024-03-06T07:24:07;4.63;;;3.92;;
54853;SDS011;40747;49.480;8.658;2024-03-06T07:26:32;8.80;;;4.03;;
54853;SDS011;40747;49.480;8.658;2024-03-06T07:28:58;7.50;;;5.43;;
54853;SDS011;40747;49.480;8.658;2024-03-06T07:31:23;5.88;;;4.10;;
54853;SDS011;40747;49.480;8.658;2024-03-06T07:33:49;5.35;;;3.67;;
54853;SDS011;40747;49.480;8.658;2024-03-06T07:36:15;7.53;;;3.72;;
54853;SDS011;40747;49.480;8.658;2024-03-06T07:38:41;5.45;;;3.08;;
54853;SDS011;40747;49.480;8.658;2024-03-06T07:41:06;6.18;;;4.07;;
54853;SDS011;40747;49.480;8.658;2024-03-06T07:43:32;7.95;;;3.72;;
54853;SDS011;40747;49.480;8.658;2024-03-06T07:45:57;3.95;;;2.53;;
54853;SDS011;40747;49.480;8.658;2024-03-06T07:48:22;4.07;;;2.97;;
54853;SDS011;40747;49.480;8.658;2024-03-06T07:50:48;6.78;;;3.97;;
54853;SDS011;40747;49.480;8.658;2024-03-06T07:53:13;3.33;;;2.65;;
54853;SDS011;40747;49.480;8.658;2024-03-06T07:55:38;4.63;;;3.08;;
54853;SDS011;40747;49.480;8.658;2024-03-06T07:58:04;4.22;;;2.20;;
54853;SDS011;40747;49.480;8.658;2024-03-06T08:00:30;3.58;;;3.25;;
54853;SDS011;40747;49.480;8.658;2024-03-06T08:02:56;6.22;;;3.60;;
54853;SDS011;40747;49.480;8.658;2024-03-06T08:05:22;5.90;;;4.22;;
54853;SDS011;40747;49.480;8.658;2024-03-06T08:07:47;5.40;;;3.80;;
54853;SDS011;40747;49.480;8.658;2024-03-06T08:10:12;10.95;;;4.00;;
54853;SDS011;40747;49.480;8.658;2024-03-06T08:12:41;6.53;;;3.95;;
54853;SDS011;40747;49.480;8.658;2024-03-06T08:15:07;5.15;;;3.08;;
54853;SDS011;40747;49.480;8.658;2024-03-06T08:17:35;6.95;;;4.40;;
54853;SDS011;40747;49.480;8.658;2024-03-06T08:20:01;6.43;;;3.70;;
54853;SDS011;40747;49.480;8.658;2024-03-06T08:22:30;5.38;;;3.35;;
54853;SDS011;40747;49.480;8.658;2024-03-06T08:24:56;5.47;;;3.63;;
54853;SDS011;40747;49.480;8.658;2024-03-06T08:27:21;5.90;;;3.25;;
54853;SDS011;40747;49.480;8.658;2024-03-06T08:29:46;8.10;;;4.38;;
54853;SDS011;40747;49.480;8.658;2024-03-06T08:32:13;5.70;;;4.05;;
54853;SDS011;40747;49.480;8.658;2024-03-06T08:34:38;5.55;;;3.53;;
54853;SDS011;40747;49.480;8.658;2024-03-06T08:37:04;5.20;;;3.30;;
54853;SDS011;40747;49.480;8.658;2024-03-06T08:39:30;8.55;;;3.85;;
54853;SDS011;40747;49.480;8.658;2024-03-06T08:41:56;10.05;;;3.90;;
54853;SDS011;40747;49.480;8.658;2024-03-06T08:44:23;6.18;;;3.35;;
54853;SDS011;40747;49.480;8.658;2024-03-06T08:46:48;7.03;;;4.78;;
54853;SDS011;40747;49.480;8.658;2024-03-06T08:49:13;7.57;;;4.63;;
54853;SDS011;40747;49.480;8.658;2024-03-06T08:51:39;5.75;;;3.90;;
54853;SDS011;40747;49.480;8.658;2024-03-06T08:54:04;7.18;;;4.18;;
54853;SDS011;40747;49.480;8.658;2024-03-06T08:56:29;8.23;;;5.00;;
54853;SDS011;40747;49.480;8.658;2024-03-06T08:58:55;11.10;;;5.53;;
54853;SDS011;40747;49.480;8.658;2024-03-06T09:01:20;6.65;;;4.63;;
54853;SDS011;40747;49.480;8.658;2024-03-06T09:03:45;7.60;;;4.10;;
54853;SDS011;40747;49.480;8.658;2024-03-06T09:06:10;9.32;;;5.68;;
54853;SDS011;40747;49.480;8.658;2024-03-06T09:08:37;7.28;;;3.83;;
54853;SDS011;40747;49.480;8.658;2024-03-06T09:11:03;8.00;;;4.63;;
54853;SDS011;40747;49.480;8.658;2024-03-06T09:13:28;9.25;;;4.93;;
54853;SDS011;40747;49.480;8.658;2024-03-06T09:15:53;6.72;;;4.28;;
54853;SDS011;40747;49.480;8.658;2024-03-06T09:18:18;10.05;;;5.57;;
54853;SDS011;40747;49.480;8.658;2024-03-06T09:20:44;5.63;;;3.33;;
54853;SDS011;40747;49.480;8.658;2024-03-06T09:23:09;5.35;;;3.60;;
54853;SDS011;40747;49.480;8.658;2024-03-06T09:25:34;8.32;;;5.32;;
54853;SDS011;40747;49.480;8.658;2024-03-06T09:27:59;9.25;;;5.45;;
54853;SDS011;40747;49.480;8.658;2024-03-06T09:30:29;7.80;;;4.93;;
54853;SDS011;40747;49.480;8.658;2024-03-06T09:32:55;5.72;;;4.20;;
54853;SDS011;40747;49.480;8.658;2024-03-06T09:35:20;7.45;;;4.30;;
54853;SDS011;40747;49.480;8.658;2024-03-06T09:37:45;6.45;;;3.70;;
54853;SDS011;40747;49.480;8.658;2024-03-06T09:40:11;3.70;;;3.22;;
54853;SDS011;40747;49.480;8.658;2024-03-06T09:42:45;5.10;;;3.63;;
54853;SDS011;40747;49.480;8.658;2024-03-06T09:45:10;5.25;;;3.60;;
54853;SDS011;40747;49.480;8.658;2024-03-06T09:47:35;5.18;;;3.55;;
54853;SDS011;40747;49.480;8.658;2024-03-06T09:50:03;6.78;;;3.67;;
54853;SDS011;40747;49.480;8.658;2024-03-06T09:52:33;6.88;;;2.85;;
54853;SDS011;40747;49.480;8.658;2024-03-06T09:54:59;7.45;;;4.63;;
54853;SDS011;40747;49.480;8.658;2024-03-06T09:57:25;7.68;;;4.43;;
54853;SDS011;40747;49.480;8.658;2024-03-06T09:59:51;7.47;;;4.07;;
54853;SDS011;40747;49.480;8.658;2024-03-06T10:02:30;5.45;;;3.22;;
54853;SDS011;40747;49.480;8.658;2024-03-06T10:05:00;8.13;;;4.75;;
54853;SDS011;40747;49.480;8.658;2024-03-06T10:07:25;9.20;;;4.43;;
54853;SDS011;40747;49.480;8.658;2024-03-06T10:09:52;9.93;;;4.45;;
54853;SDS011;40747;49.480;8.658;2024-03-06T10:12:17;13.75;;;4.28;;
54853;SDS011;40747;49.480;8.658;2024-03-06T10:14:53;9.45;;;4.65;;
54853;SDS011;40747;49.480;8.658;2024-03-06T10:17:19;12.35;;;6.38;;
54853;SDS011;40747;49.480;8.658;2024-03-06T10:19:48;11.50;;;5.82;;
54853;SDS011;40747;49.480;8.658;2024-03-06T10:22:16;7.53;;;3.58;;
54853;SDS011;40747;49.480;8.658;2024-03-06T10:24:42;5.97;;;3.35;;
54853;SDS011;40747;49.480;8.658;2024-03-06T10:27:07;7.82;;;4.68;;
54853;SDS011;40747;49.480;8.658;2024-03-06T10:29:32;7.68;;;4.65;;
54853;SDS011;40747;49.480;8.658;2024-03-06T10:32:00;8.07;;;5.18;;
54853;SDS011;40747;49.480;8.658;2024-03-06T10:34:26;7.93;;;4.35;;
54853;SDS011;40747;49.480;8.658;2024-03-06T10:36:59;6.45;;;4.32;;
54853;SDS011;40747;49.480;8.658;2024-03-06T10:39:26;8.07;;;4.97;;
54853;SDS011;40747;49.480;8.658;2024-03-06T10:41:53;12.00;;;5.43;;
54853;SDS011;40747;49.480;8.658;2024-03-06T10:44:20;7.45;;;4.10;;
54853;SDS011;40747;49.480;8.658;2024-03-06T10:46:47;4.68;;;3.90;;
54853;SDS011;40747;49.480;8.658;2024-03-06T10:49:23;8.93;;;5.07;;
54853;SDS011;40747;49.480;8.658;2024-03-06T10:51:51;11.65;;;6.43;;
54853;SDS011;40747;49.480;8.658;2024-03-06T10:54:18;14.30;;;5.47;;
54853;SDS011;40747;49.480;8.658;2024-03-06T10:56:44;8.38;;;4.80;;
54853;SDS011;40747;49.480;8.658;2024-03-06T10:59:10;10.77;;;5.28;;
54853;SDS011;40747;49.480;8.658;2024-03-06T11:01:39;7.95;;;4.57;;
54853;SDS011;40747;49.480;8.658;2024-03-06T11:04:06;12.77;;;5.72;;
54853;SDS011;40747;49.480;8.658;2024-03-06T11:06:32;8.32;;;4.90;;
54853;SDS011;40747;49.480;8.658;2024-03-06T11:08:59;14.20;;;5.38;;
54853;SDS011;40747;49.480;8.658;2024-03-06T11:11:25;10.27;;;4.55;;
54853;SDS011;40747;49.480;8.658;2024-03-06T11:13:53;9.70;;;5.03;;
54853;SDS011;40747;49.480;8.658;2024-03-06T11:16:26;11.65;;;6.47;;
54853;SDS011;40747;49.480;8.658;2024-03-06T11:18:52;8.63;;;4.90;;
54853;SDS011;40747;49.480;8.658;2024-03-06T11:21:31;11.05;;;5.22;;
54853;SDS011;40747;49.480;8.658;2024-03-06T11:26:36;10.65;;;6.35;;
54853;SDS011;40747;49.480;8.658;2024-03-06T11:29:02;12.10;;;5.53;;
54853;SDS011;40747;49.480;8.658;2024-03-06T11:31:27;10.30;;;6.47;;
54853;SDS011;40747;49.480;8.658;2024-03-06T11:33:53;12.05;;;6.05;;
54853;SDS011;40747;49.480;8.658;2024-03-06T11:36:22;13.13;;;5.38;;
54853;SDS011;40747;49.480;8.658;2024-03-06T11:39:06;10.05;;;6.28;;
54853;SDS011;40747;49.480;8.658;2024-03-06T11:41:46;11.35;;;6.10;;
54853;SDS011;40747;49.480;8.658;2024-03-06T11:44:14;13.63;;;6.18;;
54853;SDS011;40747;49.480;8.658;2024-03-06T11:46:41;9.68;;;6.35;;
54853;SDS011;40747;49.480;8.658;2024-03-06T11:49:17;9.32;;;5.45;;
54853;SDS011;40747;49.480;8.658;2024-03-06T11:51:47;19.88;;;7.32;;
54853;SDS011;40747;49.480;8.658;2024-03-06T11:54:13;9.95;;;5.57;;
54853;SDS011;40747;49.480;8.658;2024-03-06T11:56:39;14.60;;;7.05;;
54853;SDS011;40747;49.480;8.658;2024-03-06T11:59:05;14.75;;;6.45;;
54853;SDS011;40747;49.480;8.658;2024-03-06T12:01:32;14.38;;;6.38;;
54853;SDS011;40747;49.480;8.658;2024-03-06T12:03:58;10.95;;;6.55;;
54853;SDS011;40747;49.480;8.658;2024-03-06T12:06:23;13.68;;;6.20;;
54853;SDS011;40747;49.480;8.658;2024-03-06T12:08:48;14.43;;;7.97;;
54853;SDS011;40747;49.480;8.658;2024-03-06T12:11:14;10.63;;;6.07;;
54853;SDS011;40747;49.480;8.658;2024-03-06T12:13:41;10.73;;;5.97;;
54853;SDS011;40747;49.480;8.658;2024-03-06T12:16:07;10.90;;;6.20;;
54853;SDS011;40747;49.480;8.658;2024-03-06T12:18:32;12.63;;;6.95;;
54853;SDS011;40747;49.480;8.658;2024-03-06T12:21:00;14.07;;;7.43;;
54853;SDS011;40747;49.480;8.658;2024-03-06T12:23:27;11.85;;;6.53;;
54853;SDS011;40747;49.480;8.658;2024-03-06T12:26:03;13.70;;;6.93;;
54853;SDS011;40747;49.480;8.658;2024-03-06T12:28:28;16.08;;;6.60;;
54853;SDS011;40747;49.480;8.658;2024-03-06T12:30:53;10.52;;;6.22;;
54853;SDS011;40747;49.480;8.658;2024-03-06T12:33:19;12.23;;;7.07;;
54853;SDS011;40747;49.480;8.658;2024-03-06T12:35:45;12.13;;;5.00;;
54853;SDS011;40747;49.480;8.658;2024-03-06T12:38:11;11.45;;;6.47;;
54853;SDS011;40747;49.480;8.658;2024-03-06T12:40:39;10.20;;;5.78;;
54853;SDS011;40747;49.480;8.658;2024-03-06T12:43:06;15.02;;;6.13;;
54853;SDS011;40747;49.480;8.658;2024-03-06T12:45:31;12.80;;;7.10;;
54853;SDS011;40747;49.480;8.658;2024-03-06T12:47:56;10.45;;;5.38;;
54853;SDS011;40747;49.480;8.658;2024-03-06T12:50:21;12.35;;;6.20;;
54853;SDS011;40747;49.480;8.658;2024-03-06T12:52:47;12.20;;;6.55;;
54853;SDS011;40747;49.480;8.658;2024-03-06T12:55:12;12.60;;;7.07;;
54853;SDS011;40747;49.480;8.658;2024-03-06T12:57:39;12.90;;;6.57;;
54853;SDS011;40747;49.480;8.658;2024-03-06T13:00:05;13.13;;;7.72;;
54853;SDS011;40747;49.480;8.658;2024-03-06T13:02:40;13.00;;;6.35;;
54853;SDS011;40747;49.480;8.658;2024-03-06T13:05:06;14.27;;;6.72;;
54853;SDS011;40747;49.480;8.658;2024-03-06T13:07:32;11.02;;;5.57;;
54853;SDS011;40747;49.480;8.658;2024-03-06T13:09:57;14.27;;;6.53;;
54853;SDS011;40747;49.480;8.658;2024-03-06T13:12:22;11.50;;;6.30;;
54853;SDS011;40747;49.480;8.658;2024-03-06T13:14:47;11.98;;;6.25;;
54853;SDS011;40747;49.480;8.658;2024-03-06T13:17:13;11.98;;;7.07;;
54853;SDS011;40747;49.480;8.658;2024-03-06T13:19:38;11.38;;;5.20;;
54853;SDS011;40747;49.480;8.658;2024-03-06T13:22:03;8.38;;;4.60;;
54853;SDS011;40747;49.480;8.658;2024-03-06T13:24:31;7.38;;;4.90;;
54853;SDS011;40747;49.480;8.658;2024-03-06T13:26:58;12.38;;;6.47;;
54853;SDS011;40747;49.480;8.658;2024-03-06T13:29:24;12.63;;;6.57;;
54853;SDS011;40747;49.480;8.658;2024-03-06T13:31:50;14.02;;;7.20;;
54853;SDS011;40747;49.480;8.658;2024-03-06T13:34:15;14.18;;;6.80;;
54853;SDS011;40747;49.480;8.658;2024-03-06T13:36:41;12.13;;;5.65;;
54853;SDS011;40747;49.480;8.658;2024-03-06T13:39:06;12.13;;;6.18;;
54853;SDS011;40747;49.480;8.658;2024-03-06T13:41:31;11.07;;;6.38;;
54853;SDS011;40747;49.480;8.658;2024-03-06T13:43:57;13.75;;;7.28;;
54853;SDS011;40747;49.480;8.658;2024-03-06T13:46:22;13.48;;;7.25;;
54853;SDS011;40747;49.480;8.658;2024-03-06T13:48:47;11.88;;;6.53;;
54853;SDS011;40747;49.480;8.658;2024-03-06T13:51:12;16.98;;;8.65;;
54853;SDS011;40747;49.480;8.658;2024-03-06T13:53:38;16.67;;;8.20;;
54853;SDS011;40747;49.480;8.658;2024-03-06T13:56:03;12.85;;;7.15;;
54853;SDS011;40747;49.480;8.658;2024-03-06T13:58:29;13.20;;;7.50;;
54853;SDS011;40747;49.480;8.658;2024-03-06T14:00:54;11.25;;;6.40;;
54853;SDS011;40747;49.480;8.658;2024-03-06T14:03:19;12.77;;;6.25;;
54853;SDS011;40747;49.480;8.658;2024-03-06T14:05:45;14.05;;;7.70;;
54853;SDS011;40747;49.480;8.658;2024-03-06T14:08:11;17.73;;;9.02;;
54853;SDS011;40747;49.480;8.658;2024-03-06T14:10:38;15.30;;;7.93;;
54853;SDS011;40747;49.480;8.658;2024-03-06T14:13:04;13.35;;;8.00;;
54853;SDS011;40747;49.480;8.658;2024-03-06T14:15:30;16.70;;;8.15;;
54853;SDS011;40747;49.480;8.658;2024-03-06T14:17:55;11.77;;;7.07;;
54853;SDS011;40747;49.480;8.658;2024-03-06T14:20:20;16.48;;;8.20;;
54853;SDS011;40747;49.480;8.658;2024-03-06T14:22:47;15.88;;;9.85;;
54853;SDS011;40747;49.480;8.658;2024-03-06T14:25:12;15.15;;;8.95;;
54853;SDS011;40747;49.480;8.658;2024-03-06T14:27:38;13.30;;;7.68;;
54853;SDS011;40747;49.480;8.658;2024-03-06T14:30:04;15.25;;;8.73;;
54853;SDS011;40747;49.480;8.658;2024-03-06T14:32:34;16.00;;;8.68;;
54853;SDS011;40747;49.480;8.658;2024-03-06T14:34:59;19.38;;;10.27;;
54853;SDS011;40747;49.480;8.658;2024-03-06T14:37:24;15.70;;;8.63;;
54853;SDS011;40747;49.480;8.658;2024-03-06T14:39:50;16.13;;;9.13;;